createdAt,value
2019-01-09T00:01:13.979Z,83.48
2019-01-09T00:03:42.828Z,83.11
2019-01-09T00:06:11.502Z,83.14
2019-01-09T00:08:40.181Z,83.25
2019-01-09T00:11:08.910Z,83.55
2019-01-09T00:13:37.418Z,83.98
2019-01-09T00:16:06.105Z,84.45
2019-01-09T00:18:34.857Z,84.68
2019-01-09T00:21:03.535Z,84.79
2019-01-09T00:23:32.212Z,85.11
2019-01-09T00:26:01.046Z,85.34
2019-01-09T00:28:29.723Z,85.32
2019-01-09T00:30:59.952Z,84.21
2019-01-09T00:33:28.661Z,83.89
2019-01-09T00:35:57.381Z,83.92
2019-01-09T00:38:26.071Z,84.25
2019-01-09T00:40:55.753Z,84.24
2019-01-09T00:43:24.437Z,84.12
2019-01-09T00:45:53.115Z,84.24
2019-01-09T00:48:22.053Z,84.86
2019-01-09T00:50:50.666Z,84.16
2019-01-09T00:53:19.342Z,84.41
2019-01-09T00:55:48.083Z,84.90
2019-01-09T00:58:16.911Z,84.97
2019-01-09T01:00:45.590Z,84.91
2019-01-09T01:03:29.420Z,84.08
2019-01-09T01:06:16.154Z,84.25
2019-01-09T01:09:21.430Z,84.68
2019-01-09T01:12:09.801Z,84.36
2019-01-09T01:15:16.672Z,84.26
2019-01-09T01:18:12.405Z,84.19
2019-01-09T01:20:46.767Z,83.71
2019-01-09T01:23:36.355Z,83.03
2019-01-09T01:26:16.619Z,82.89
2019-01-09T01:28:56.851Z,82.88
2019-01-09T01:31:31.066Z,82.65
2019-01-09T01:34:16.905Z,82.85
2019-01-09T01:36:54.742Z,83.05
2019-01-09T01:39:38.235Z,83.05
2019-01-09T01:42:21.177Z,83.57
2019-01-09T01:44:55.547Z,83.57
2019-01-09T01:47:36.224Z,83.51
2019-01-09T01:50:16.800Z,83.47
2019-01-09T01:53:09.645Z,83.47
2019-01-09T01:55:56.498Z,83.33
2019-01-09T01:58:46.366Z,83.43
2019-01-09T02:01:40.811Z,82.37
2019-01-09T02:04:18.530Z,82.37
2019-01-09T02:07:06.869Z,82.52
2019-01-09T02:09:38.558Z,80.48
2019-01-09T02:12:26.340Z,79.75
2019-01-09T02:15:12.904Z,80.76
2019-01-09T02:17:47.002Z,80.64
2019-01-09T02:20:35.349Z,81.76
2019-01-09T02:23:37.128Z,82.32
2019-01-09T02:26:35.880Z,83.04
2019-01-09T02:29:19.360Z,82.93
2019-01-09T02:32:18.619Z,83.17
2019-01-09T02:34:47.290Z,83.62
2019-01-09T02:37:15.982Z,83.17
2019-01-09T02:39:44.971Z,82.70
2019-01-09T02:42:13.651Z,82.70
2019-01-09T02:44:42.339Z,82.06
2019-01-09T02:47:11.057Z,80.71
2019-01-09T02:49:39.746Z,80.71
2019-01-09T02:52:08.434Z,81.74
2019-01-09T02:54:37.278Z,82.75
2019-01-09T02:57:05.968Z,82.75
2019-01-09T02:59:34.648Z,83.41
2019-01-09T03:02:03.671Z,83.63
2019-01-09T03:04:32.442Z,83.74
2019-01-09T03:07:01.122Z,83.09
2019-01-09T03:09:29.846Z,81.68
2019-01-09T03:11:58.527Z,80.44
2019-01-09T03:14:27.710Z,79.53
2019-01-09T03:16:56.530Z,79.53
2019-01-09T03:19:25.240Z,78.66
2019-01-09T03:21:53.917Z,79.33
2019-01-09T03:24:22.667Z,80.12
2019-01-09T03:26:51.345Z,80.32
2019-01-09T03:29:20.026Z,80.57
2019-01-09T03:31:48.881Z,81.02
2019-01-09T03:34:17.560Z,80.09
2019-01-09T03:36:46.244Z,80.99
2019-01-09T03:39:15.009Z,80.33
2019-01-09T03:41:43.699Z,80.77
2019-01-09T03:44:12.377Z,80.77
2019-01-09T03:46:41.207Z,80.83
2019-01-09T03:49:09.899Z,77.71
2019-01-09T03:51:38.577Z,77.59
2019-01-09T03:54:07.404Z,77.59
2019-01-09T03:56:37.118Z,77.85
2019-01-09T03:59:05.810Z,77.64
2019-01-09T04:01:34.704Z,77.02
2019-01-09T04:04:03.388Z,77.27
2019-01-09T04:06:32.084Z,77.27
2019-01-09T04:09:00.837Z,75.61
2019-01-09T04:11:29.526Z,75.78
2019-01-09T04:13:58.215Z,75.78
2019-01-09T04:16:27.164Z,75.72
2019-01-09T04:18:55.843Z,75.72
2019-01-09T04:21:24.526Z,75.01
2019-01-09T04:23:53.489Z,75.31
2019-01-09T04:26:22.163Z,75.67
2019-01-09T04:28:50.850Z,75.67
2019-01-09T04:31:19.703Z,75.94
2019-01-09T04:33:48.400Z,76.57
2019-01-09T04:36:17.066Z,75.96
2019-01-09T04:38:45.834Z,76.76
2019-01-09T04:41:14.522Z,76.76
2019-01-09T04:43:43.203Z,76.65
2019-01-09T04:46:11.984Z,77.24
2019-01-09T04:48:40.658Z,77.44
2019-01-09T04:51:09.342Z,76.76
2019-01-09T04:53:38.182Z,76.52
2019-01-09T04:56:06.886Z,76.73
2019-01-09T04:58:35.498Z,77.30
2019-01-09T05:01:04.307Z,77.30
2019-01-09T05:03:33.031Z,77.22
2019-01-09T05:06:01.710Z,78.03
2019-01-09T05:08:30.420Z,77.43
2019-01-09T05:10:59.109Z,78.16
2019-01-09T05:13:27.790Z,78.16
2019-01-09T05:15:56.531Z,77.57
2019-01-09T05:18:25.207Z,77.51
2019-01-09T05:20:53.956Z,77.62
2019-01-09T05:23:22.774Z,77.16
2019-01-09T05:25:53.238Z,77.94
2019-01-09T05:28:21.929Z,78.02
2019-01-09T05:30:53.813Z,77.63
2019-01-09T05:33:22.502Z,77.99
2019-01-09T05:35:51.277Z,77.99
2019-01-09T05:38:20.105Z,78.35
2019-01-09T05:40:48.796Z,78.36
2019-01-09T05:43:17.627Z,77.30
2019-01-09T05:45:46.396Z,77.00
2019-01-09T05:48:15.237Z,77.46
2019-01-09T05:50:43.899Z,77.62
2019-01-09T05:53:12.662Z,78.25
2019-01-09T05:55:41.333Z,79.11
2019-01-09T05:58:10.030Z,79.92
2019-01-09T06:00:38.888Z,80.86
2019-01-09T06:03:07.584Z,81.49
2019-01-09T06:05:38.745Z,81.49
2019-01-09T06:08:07.527Z,81.90
2019-01-09T06:10:36.205Z,80.36
2019-01-09T06:13:04.884Z,81.49
2019-01-09T06:15:33.616Z,81.49
2019-01-09T06:18:02.295Z,82.17
2019-01-09T06:20:30.981Z,83.29
2019-01-09T06:22:59.744Z,83.36
2019-01-09T06:25:28.419Z,82.71
2019-01-09T06:27:57.104Z,83.21
2019-01-09T06:30:25.901Z,83.21
2019-01-09T06:32:54.583Z,83.91
2019-01-09T06:35:23.276Z,82.95
2019-01-09T06:37:52.021Z,83.06
2019-01-09T06:40:20.718Z,83.06
2019-01-09T06:42:49.390Z,83.40
2019-01-09T06:45:18.397Z,82.11
2019-01-09T06:47:47.083Z,80.39
2019-01-09T06:50:18.129Z,80.97
2019-01-09T06:52:46.821Z,80.75
2019-01-09T06:55:15.532Z,80.14
2019-01-09T06:57:44.254Z,80.14
2019-01-09T07:00:12.931Z,79.16
2019-01-09T07:02:41.618Z,77.40
2019-01-09T07:05:10.442Z,76.32
2019-01-09T07:07:39.339Z,76.32
2019-01-09T07:10:08.723Z,75.92
2019-01-09T07:12:37.438Z,75.10
2019-01-09T07:15:11.825Z,73.87
2019-01-09T07:17:37.632Z,74.12
2019-01-09T07:20:06.853Z,70.60
2019-01-09T07:22:35.549Z,66.79
2019-01-09T07:25:04.637Z,66.79
2019-01-09T07:27:33.556Z,66.59
2019-01-09T07:30:02.238Z,67.67
2019-01-09T07:32:30.917Z,67.59
2019-01-09T07:34:59.725Z,65.93
2019-01-09T07:37:28.413Z,62.88
2019-01-09T07:39:57.086Z,64.81
2019-01-09T07:42:25.919Z,64.23
2019-01-09T07:44:54.609Z,61.83
2019-01-09T07:47:23.299Z,61.98
2019-01-09T07:49:52.225Z,63.67
2019-01-09T07:52:20.917Z,61.64
2019-01-09T07:54:49.589Z,61.49
2019-01-09T07:57:18.488Z,61.77
2019-01-09T07:59:47.175Z,62.17
2019-01-09T08:02:15.864Z,63.06
2019-01-09T08:04:44.713Z,63.69
2019-01-09T08:07:13.400Z,63.87
2019-01-09T08:09:42.087Z,64.59
2019-01-09T08:12:10.849Z,64.92
2019-01-09T08:14:39.528Z,65.51
2019-01-09T08:17:08.213Z,63.63
2019-01-09T08:19:36.966Z,64.80
2019-01-09T08:22:05.576Z,66.42
2019-01-09T08:24:34.250Z,66.86
2019-01-09T08:27:02.976Z,65.53
2019-01-09T08:29:31.612Z,67.97
2019-01-09T08:32:00.290Z,68.15
2019-01-09T08:34:29.271Z,66.92
2019-01-09T08:36:57.949Z,66.49
2019-01-09T08:39:26.635Z,65.08
2019-01-09T08:41:56.844Z,67.39
2019-01-09T08:44:25.539Z,66.43
2019-01-09T08:46:54.214Z,66.27
2019-01-09T08:49:23.041Z,64.58
2019-01-09T08:51:51.738Z,64.01
2019-01-09T08:54:20.411Z,59.72
2019-01-09T08:56:49.272Z,60.91
2019-01-09T08:59:17.944Z,59.12
2019-01-09T09:01:46.622Z,59.22
2019-01-09T09:04:15.459Z,58.37
2019-01-09T09:06:44.149Z,58.27
2019-01-09T09:09:13.238Z,56.78
2019-01-09T09:11:42.132Z,57.90
2019-01-09T09:14:12.320Z,58.47
2019-01-09T09:16:40.999Z,58.81
2019-01-09T09:19:09.910Z,59.42
2019-01-09T09:21:38.594Z,58.98
2019-01-09T09:24:07.284Z,57.99
2019-01-09T09:26:36.023Z,57.91
2019-01-09T09:29:04.697Z,58.93
2019-01-09T09:31:33.377Z,59.19
2019-01-09T09:34:03.093Z,59.76
2019-01-09T09:36:31.779Z,59.69
2019-01-09T09:39:00.457Z,58.92
2019-01-09T09:41:29.189Z,58.09
2019-01-09T09:43:57.861Z,58.47
2019-01-09T09:46:26.533Z,57.72
2019-01-09T09:48:55.449Z,57.45
2019-01-09T09:51:24.144Z,56.34
2019-01-09T09:53:52.841Z,56.54
2019-01-09T09:56:21.675Z,58.21
2019-01-09T09:58:50.358Z,58.94
2019-01-09T10:01:19.045Z,58.55
2019-01-09T10:03:49.247Z,59.01
2019-01-09T10:06:17.928Z,58.00
2019-01-09T10:08:46.616Z,59.03
2019-01-09T10:11:15.458Z,58.32
2019-01-09T10:13:44.139Z,58.92
2019-01-09T10:16:12.838Z,59.48
2019-01-09T10:18:41.600Z,57.57
2019-01-09T10:21:10.284Z,57.46
2019-01-09T10:23:38.958Z,57.32
2019-01-09T10:26:07.682Z,56.36
2019-01-09T10:28:36.364Z,56.77
2019-01-09T10:31:05.152Z,57.63
2019-01-09T10:33:34.021Z,56.67
2019-01-09T10:36:02.704Z,56.12
2019-01-09T10:38:37.923Z,57.67
2019-01-09T10:41:01.927Z,58.34
2019-01-09T10:43:30.605Z,57.89
2019-01-09T10:45:59.291Z,58.34
2019-01-09T10:48:28.128Z,59.12
2019-01-09T10:50:56.803Z,59.26
2019-01-09T10:53:25.487Z,59.82
2019-01-09T10:55:54.318Z,60.62
2019-01-09T10:58:23.005Z,59.78
2019-01-09T11:00:51.690Z,58.46
2019-01-09T11:03:20.667Z,57.99
2019-01-09T11:05:49.360Z,57.93
2019-01-09T11:08:18.056Z,57.00
2019-01-09T11:10:46.832Z,57.64
2019-01-09T11:13:15.511Z,57.65
2019-01-09T11:15:44.211Z,58.89
2019-01-09T11:18:13.046Z,59.17
2019-01-09T11:20:41.719Z,59.78
2019-01-09T11:23:10.423Z,58.51
2019-01-09T11:25:39.142Z,57.31
2019-01-09T11:28:07.833Z,58.17
2019-01-09T11:30:36.614Z,57.59
2019-01-09T11:33:05.460Z,58.32
2019-01-09T11:35:34.146Z,58.06
2019-01-09T11:38:02.830Z,58.67
2019-01-09T11:40:31.591Z,57.08
2019-01-09T11:43:00.276Z,57.59
2019-01-09T11:45:28.958Z,58.17
2019-01-09T11:47:57.880Z,57.92
2019-01-09T11:50:26.555Z,57.50
2019-01-09T11:52:55.244Z,57.24
2019-01-09T11:55:24.069Z,56.70
2019-01-09T11:57:52.743Z,57.54
2019-01-09T12:00:24.000Z,56.44
2019-01-09T12:02:52.868Z,57.43
2019-01-09T12:05:21.542Z,58.48
2019-01-09T12:07:50.327Z,58.62
2019-01-09T12:10:29.955Z,58.06
2019-01-09T12:12:52.279Z,58.82
2019-01-09T12:15:21.352Z,57.76
2019-01-09T12:17:50.368Z,58.41
2019-01-09T12:20:20.246Z,58.54
2019-01-09T12:22:49.839Z,58.34
2019-01-09T12:25:18.570Z,58.16
2019-01-09T12:27:47.572Z,57.78
2019-01-09T12:30:19.500Z,57.99
2019-01-09T12:32:48.345Z,57.70
2019-01-09T12:35:17.024Z,57.07
2019-01-09T12:37:45.783Z,56.52
2019-01-09T12:40:14.528Z,57.57
2019-01-09T12:42:43.206Z,57.10
2019-01-09T12:45:14.670Z,57.51
2019-01-09T12:47:43.484Z,58.69
2019-01-09T12:50:15.668Z,59.18
2019-01-09T12:52:44.354Z,58.11
2019-01-09T12:55:13.793Z,58.04
2019-01-09T12:57:42.647Z,57.33
2019-01-09T13:00:17.307Z,58.52
2019-01-09T13:02:46.038Z,58.69
2019-01-09T13:05:14.956Z,58.62
2019-01-09T13:07:43.770Z,58.32
2019-01-09T13:10:12.564Z,58.68
2019-01-09T13:12:41.429Z,59.58
2019-01-09T13:15:11.174Z,59.22
2019-01-09T13:17:39.854Z,58.67
2019-01-09T13:22:47.299Z,59.42
2019-01-09T13:25:16.084Z,58.59
2019-01-09T13:27:45.167Z,59.24
2019-01-09T13:30:22.219Z,59.54
2019-01-09T13:32:50.886Z,59.46
2019-01-09T13:35:19.664Z,60.06
2019-01-09T13:37:48.509Z,60.11
2019-01-09T13:40:19.269Z,59.60
2019-01-09T13:42:47.942Z,60.88
2019-01-09T13:45:18.833Z,61.34
2019-01-09T13:47:48.022Z,62.05
2019-01-09T13:50:18.512Z,61.66
2019-01-09T13:52:47.347Z,62.58
2019-01-09T13:55:17.132Z,61.76
2019-01-09T13:57:45.880Z,60.53
2019-01-09T14:00:22.045Z,60.67
2019-01-09T14:02:50.825Z,61.33
2019-01-09T14:05:22.107Z,61.62
2019-01-09T14:07:50.864Z,61.69
2019-01-09T14:10:23.687Z,60.85
2019-01-09T14:12:52.370Z,62.28
2019-01-09T14:15:22.177Z,62.36
2019-01-09T14:17:51.152Z,61.36
2019-01-09T14:20:21.414Z,60.74
2019-01-09T14:22:54.394Z,60.37
2019-01-09T14:25:23.045Z,61.04
2019-01-09T14:27:51.722Z,60.73
2019-01-09T14:30:23.340Z,61.78
2019-01-09T14:32:52.012Z,63.03
2019-01-09T14:35:20.696Z,62.67
2019-01-09T14:37:49.651Z,63.21
2019-01-09T14:40:20.038Z,64.30
2019-01-09T14:42:48.808Z,64.67
2019-01-09T14:45:18.169Z,64.95
2019-01-09T14:47:46.953Z,65.56
2019-01-09T14:50:18.047Z,65.30
2019-01-09T14:52:46.890Z,65.39
2019-01-09T14:55:17.652Z,66.15
2019-01-09T14:57:46.879Z,65.87
2019-01-09T15:00:20.897Z,65.81
2019-01-09T15:02:49.571Z,66.46
2019-01-09T15:05:18.259Z,66.66
2019-01-09T15:07:47.079Z,67.37
2019-01-09T15:10:27.108Z,67.87
2019-01-09T15:12:56.346Z,67.99
2019-01-09T15:15:27.428Z,68.35
2019-01-09T15:17:56.108Z,68.27
2019-01-09T15:20:24.876Z,68.68
2019-01-09T15:22:53.562Z,68.28
2019-01-09T15:25:22.238Z,69.05
2019-01-09T15:27:51.044Z,69.09
2019-01-09T15:30:22.809Z,69.33
2019-01-09T15:32:51.593Z,68.87
2019-01-09T15:35:20.824Z,69.09
2019-01-09T15:37:49.495Z,69.25
2019-01-09T15:40:29.302Z,69.30
2019-01-09T15:42:57.982Z,69.47
2019-01-09T15:45:26.768Z,69.17
2019-01-09T15:47:55.706Z,69.20
2019-01-09T15:50:26.688Z,69.04
2019-01-09T15:52:55.386Z,69.05
2019-01-09T15:55:24.224Z,68.92
2019-01-09T15:57:54.300Z,68.41
2019-01-09T16:00:37.892Z,68.50
2019-01-09T16:03:07.088Z,68.43
2019-01-09T16:05:35.773Z,68.62
2019-01-09T16:08:04.981Z,68.32
2019-01-09T16:10:33.665Z,68.87
2019-01-09T16:13:02.358Z,69.26
2019-01-09T16:15:31.206Z,69.15
2019-01-09T16:17:59.873Z,68.83
2019-01-09T16:20:28.547Z,68.45
2019-01-09T16:22:57.282Z,68.69
2019-01-09T16:25:26.153Z,68.31
2019-01-09T16:27:54.840Z,68.51
2019-01-09T16:30:34.293Z,67.99
2019-01-09T16:33:02.905Z,68.48
2019-01-09T16:35:34.266Z,68.80
2019-01-09T16:38:04.390Z,68.24
2019-01-09T16:40:33.078Z,67.43
2019-01-09T16:43:01.768Z,67.90
2019-01-09T16:45:30.491Z,68.37
2019-01-09T16:47:59.177Z,68.16
2019-01-09T16:50:27.854Z,68.18
2019-01-09T16:52:56.709Z,68.55
2019-01-09T16:55:25.874Z,69.01
2019-01-09T16:57:54.552Z,69.26
2019-01-09T17:00:26.561Z,69.02
2019-01-09T17:02:55.279Z,68.00
2019-01-09T17:05:23.954Z,68.57
2019-01-09T17:07:53.248Z,67.94
2019-01-09T17:10:31.887Z,68.06
2019-01-09T17:12:53.962Z,68.60
2019-01-09T17:15:22.714Z,68.60
2019-01-09T17:17:51.406Z,67.97
2019-01-09T17:20:22.298Z,68.48
2019-01-09T17:22:51.911Z,69.73
2019-01-09T17:25:20.602Z,69.40
2019-01-09T17:27:49.383Z,69.93
2019-01-09T17:30:23.615Z,69.56
2019-01-09T17:32:52.303Z,69.40
2019-01-09T17:35:20.976Z,69.41
2019-01-09T17:37:50.979Z,68.63
2019-01-09T17:40:21.942Z,68.83
2019-01-09T17:42:51.109Z,69.59
2019-01-09T17:45:20.033Z,70.67
2019-01-09T17:47:48.720Z,71.23
2019-01-09T17:50:32.051Z,72.21
2019-01-09T17:53:00.934Z,73.09
2019-01-09T17:55:29.603Z,72.74
2019-01-09T17:57:58.535Z,73.77
2019-01-09T18:00:35.700Z,74.06
2019-01-09T18:03:04.653Z,74.49
2019-01-09T18:05:33.349Z,75.57
2019-01-09T18:08:10.163Z,75.79
2019-01-09T18:10:32.519Z,76.49
2019-01-09T18:13:01.207Z,76.81
2019-01-09T18:15:29.902Z,78.02
2019-01-09T18:17:58.655Z,78.46
2019-01-09T18:20:27.445Z,78.54
2019-01-09T18:22:56.126Z,79.68
2019-01-09T18:25:27.640Z,79.69
2019-01-09T18:27:56.331Z,79.51
2019-01-09T18:30:28.223Z,79.95
2019-01-09T18:33:02.635Z,81.25
2019-01-09T18:35:37.087Z,81.47
2019-01-09T18:38:20.462Z,83.34
2019-01-09T18:41:14.245Z,83.34
2019-01-09T18:44:02.314Z,83.28
2019-01-09T18:46:45.874Z,82.90
2019-01-09T18:49:33.952Z,84.21
2019-01-09T18:52:20.595Z,84.93
2019-01-09T18:54:49.323Z,84.71
2019-01-09T18:57:18.006Z,84.71
2019-01-09T18:59:46.694Z,84.54
2019-01-09T19:02:16.020Z,84.50
2019-01-09T19:04:44.678Z,85.73
2019-01-09T19:07:16.608Z,85.73
2019-01-09T19:09:46.774Z,86.81
2019-01-09T19:12:15.614Z,87.19
2019-01-09T19:14:45.736Z,86.90
2019-01-09T19:17:14.947Z,87.22
2019-01-09T19:19:43.729Z,87.82
2019-01-09T19:22:12.577Z,87.73
2019-01-09T19:24:42.102Z,87.73
2019-01-09T19:27:10.930Z,88.61
2019-01-09T19:29:39.895Z,87.72
2019-01-09T19:32:08.847Z,87.38
2019-01-09T19:34:37.524Z,87.29
2019-01-09T19:37:06.308Z,87.95
2019-01-09T19:39:35.142Z,88.08
2019-01-09T19:42:03.838Z,89.32
2019-01-09T19:44:32.528Z,89.21
2019-01-09T19:47:01.852Z,89.21
2019-01-09T19:49:30.529Z,88.66
2019-01-09T19:51:59.146Z,88.93
2019-01-09T19:54:28.163Z,87.69
2019-01-09T19:56:57.057Z,88.35
2019-01-09T19:59:25.739Z,88.12
2019-01-09T20:01:54.580Z,88.65
2019-01-09T20:04:23.267Z,88.95
2019-01-09T20:06:51.967Z,89.40
2019-01-09T20:09:20.706Z,89.40
2019-01-09T20:11:49.429Z,89.64
2019-01-09T20:14:18.120Z,90.76
2019-01-09T20:16:46.915Z,90.47
2019-01-09T20:19:15.609Z,90.13
2019-01-09T20:21:44.329Z,89.29
2019-01-09T20:24:12.996Z,88.87
2019-01-09T20:26:41.754Z,89.37
2019-01-09T20:29:10.568Z,90.03
2019-01-09T20:31:40.931Z,89.48
2019-01-09T20:34:09.601Z,89.61
2019-01-09T20:36:38.326Z,89.48
2019-01-09T20:39:08.107Z,89.60
2019-01-09T20:41:36.798Z,90.03
2019-01-09T20:44:05.728Z,90.12
2019-01-09T20:46:34.493Z,89.97
2019-01-09T20:49:03.240Z,90.21
2019-01-09T20:51:32.043Z,90.27
2019-01-09T20:54:00.853Z,90.12
2019-01-09T20:56:29.555Z,90.46
2019-01-09T20:58:58.220Z,90.12
2019-01-09T21:01:27.082Z,90.51
2019-01-09T21:03:55.834Z,90.83
2019-01-09T21:06:24.536Z,90.29
2019-01-09T21:08:59.526Z,90.07
2019-01-09T21:11:23.672Z,90.37
2019-01-09T21:13:53.128Z,89.96
2019-01-09T21:16:21.929Z,89.51
2019-01-09T21:18:50.738Z,89.76
2019-01-09T21:21:19.423Z,89.80
2019-01-09T21:23:48.148Z,89.92
2019-01-09T21:26:16.835Z,90.63
2019-01-09T21:28:45.516Z,91.03
2019-01-09T21:31:14.361Z,90.54
2019-01-09T21:33:43.054Z,90.38
2019-01-09T21:36:11.734Z,90.87
2019-01-09T21:38:40.465Z,91.08
2019-01-09T21:41:09.139Z,90.86
2019-01-09T21:43:37.833Z,90.73
2019-01-09T21:46:06.781Z,90.93
2019-01-09T21:48:35.474Z,90.77
2019-01-09T21:51:04.353Z,90.34
2019-01-09T21:53:33.213Z,90.46
2019-01-09T21:56:01.897Z,90.18
2019-01-09T21:58:30.630Z,90.96
2019-01-09T22:00:59.455Z,91.17
2019-01-09T22:03:28.137Z,91.12
2019-01-09T22:05:56.816Z,91.06
2019-01-09T22:08:25.633Z,90.43
2019-01-09T22:10:54.317Z,90.56
2019-01-09T22:13:23.008Z,90.10
2019-01-09T22:15:51.970Z,90.56
2019-01-09T22:18:20.750Z,90.33
2019-01-09T22:20:49.450Z,90.72
2019-01-09T22:23:18.609Z,90.41
2019-01-09T22:25:47.293Z,89.90
2019-01-09T22:28:15.980Z,90.04
2019-01-09T22:30:44.888Z,89.98
2019-01-09T22:33:13.668Z,90.33
2019-01-09T22:35:42.346Z,89.49
2019-01-09T22:38:11.105Z,89.09
2019-01-09T22:40:39.796Z,89.73
2019-01-09T22:43:08.472Z,90.36
2019-01-09T22:45:37.308Z,90.11
2019-01-09T22:48:05.991Z,89.60
2019-01-09T22:50:34.671Z,89.77
2019-01-09T22:53:03.595Z,90.22
2019-01-09T22:55:32.281Z,89.98
2019-01-09T22:58:00.966Z,90.98
2019-01-09T23:00:44.534Z,90.48
2019-01-09T23:03:20.202Z,90.49
2019-01-09T23:05:50.320Z,91.14
2019-01-09T23:08:32.404Z,91.26
2019-01-09T23:11:01.195Z,91.11
2019-01-09T23:13:30.691Z,92.06
2019-01-09T23:15:59.375Z,92.51
2019-01-09T23:18:28.470Z,91.83
2019-01-09T23:20:57.155Z,92.47
2019-01-09T23:23:25.855Z,93.39
2019-01-09T23:25:55.049Z,93.64
2019-01-09T23:28:23.731Z,93.49
2019-01-09T23:30:52.469Z,93.49
2019-01-09T23:33:21.730Z,93.78
2019-01-09T23:35:50.441Z,93.76
2019-01-09T23:38:19.136Z,93.30
2019-01-09T23:40:49.419Z,94.04
2019-01-09T23:43:18.115Z,93.62
2019-01-09T23:45:47.505Z,94.09
2019-01-09T23:48:16.296Z,94.39
2019-01-09T23:50:44.976Z,94.11
2019-01-09T23:53:13.760Z,94.12
2019-01-09T23:55:42.685Z,94.06
2019-01-09T23:58:11.369Z,94.44
